Kezdőlap
METAR-TAF:

METAR-TAF

Repülőterek :

Treviso, Olaszország

földrajzi szélesség: 45-39N, földrajzi hosszúság: 012-11E, magasság: 18 m

Jelenlegi meteorológiai megfigyelések

A jelentés 35 perccel ezelõtt készült, 18:50 UTC
Nyugat-délnyugati szél 3 kt
Hőmérséklet 4°C
Páratartalom 100%
Légköri nyomás 997 hPa
Látótávolság: 4300 m
Párásság

METAR: LIPH 231850Z AUTO 24003KT 4300 BR FEW016/// BKN140/// 04/04 Q0997

Idő: 20:25 (19:25 UTC)

Előrejelzés

A jelentés 2 órával és 25 perccel ezelõtt készült, 17:00 UTC
Az előrejelzés 23-én 18 óra UTC és 24-én 18 óra UTC között érvényes
Különbözõ irányokból fújó szél 5 kt
Látótávolság: 7000 m
Szórványos felhőzet 4000 lábon
23-én 21 óra UTC és 24-én 08 óra UTC között ideiglenes
Látótávolság: 2000 m
Szakadozott felhőzet 1000 lábon
Párásság

TAF: LIPH 231700Z 2318/2418 VRB05KT 7000 SCT040 TEMPO 2321/2408 2000 BR BKN010

Meteorológiai megfigyelések és előrejelzések több, mint 4000 repülőtéren (METAR és TAF jelentéseket).

A térképen piros és sárga pontok jelzik az elérhető meteorológiai állomásokat.

Mozgassa az egeret a pont fölött, hogy megjelenjen az állomás neve.

Azután kattintson az időjárási megfigyelések és előrejelzések megtekintéséhez.

A térkép megváltoztatása: kattintson a fekete keresztel jelölt zöld gombra ráközelítéshez, a vonallal jelölt zöld gombra távolításhoz, vagy a zöld nyilakra a szomszédos térképek eléréséhez.


METAR-TAF: